Heathsville, VA (22473)

6:49 AM EDT on April 23, 2017 (GMT -0400)
Knights Landing | | Change Station

Elev 10 ft 37.87 °N, 76.42 °W | Updated 9 seconds ago

Overcast
Overcast
52.7 °F
Feels Like 52.7 °F
N
2.0
Wind Variable Wind from NNE
Gusts 3.0 mph

Today
High -- | Low -- °F
--% Chance of Precip.
Yesterday
High -- | Low -- °F
Precip. -- in
Pressure 30.04 in
Visibility 10.0 miles
Clouds Mostly Cloudy 10000 ft
Dew Point 48 °F
Humidity 84%
Rainfall 0.04 in
Snow Depth Not available.
6:19 AM 7:49 PM
Waning Crescent, 13% visible
METAR KNUI 230953Z AUTO 04005KT 10SM BKN100 11/07 A3004 RMK AO2 RAB13E38 SLP172 P0000 T01060067
Pressure 30.04 in
Visibility 10.0 miles
Clouds Mostly Cloudy 10000 ft
Dew Point 48 °F
Humidity 84%
Rainfall 0.04 in
Snow Depth Not available.
6:19 AM 7:49 PM
Waning Crescent, 13% visible
METAR KNUI 230953Z AUTO 04005KT 10SM BKN100 11/07 A3004 RMK AO2 RAB13E38 SLP172 P0000 T01060067

Get Severe Weather Alerts

Thanks for signing up!

Be on the lookout for a verification email in your inbox.

You'll start receiving the daily forecast at 8 AM.

×

10-Day Weather Forecast

Almanac

Astronomy

Apr. 23, 2017 Rise Set
Actual Time
Civil Twilight
Nautical Twilight
Astronomical Twilight
Moon
Length of Visible Light
Length of Day
Tomorrow will be .
, % of the Moon is Illuminated

Today's Extremes

State Highs State Lows

Community

WunderPhotos

WunderBlog® & News

Nearby

Air Quality

  Air Quality AQ Index Pollutant
Not available.

Snow Depth

Station Depth Elevation

Earthquake Activity

City Distance Mag. Time & Date
Minimum magnitude displayed is 2.5.

Coastal Water Temperatures

Place Temperature

Stations

Nearby Weather Stations

Station Location Temp. Windchill Dew Point Humidity Wind Precip. Elev Updated Type
                   

Watches & Warnings

There are currently no watches in effect.